Azucar — ZCTR4 — position and weather

sailwx.info

Track history (hours):
 
Tides and Currents Weather Stations Pressure Air Temp Water Temp Dewpoint Dewpoint Depression Visibility Wind Speed Wind Dir Waves Ship Positions

Azucar

Last reported at 2015-Jul-01 01:32 UTC. Time now 2015-Jul-01 01:51 UTC.
Position N 41°00' W 072°18'.

Length 40 m; draft 2.1 m.

Type: Pleasure craft. MMSI: 319416000.

Date/timePositionNaut miles runAvg speedWind from/ knotsBaromVisibWave heightAir tempDewpointWater temp
2015-Jul-01 01:32N 41°00' W 072°18'0 0.0
2015-Jul-01 00:32N 41°00' W 072°18'0 0.0
2015-Jun-30 23:32N 41°00' W 072°18'0 0.0
2015-Jun-30 22:32N 41°00' W 072°18'0 0.0
2015-Jun-30 21:32N 41°00' W 072°18'0 0.0
2015-Jun-30 20:32N 41°00' W 072°18'0 0.0
2015-Jun-30 19:32N 41°00' W 072°18'0 0.0
2015-Jun-30 18:32N 41°00' W 072°18'0 0.0
2015-Jun-30 17:32N 41°00' W 072°18'0 0.0
2015-Jun-30 16:32N 41°00' W 072°18'0 0.0
2015-Jun-30 15:20N 41°00' W 072°18'0 0.0
2015-Jun-30 14:32N 41°00' W 072°18'0 0.0
2015-Jun-30 13:32N 41°00' W 072°18'0 0.0
2015-Jun-30 12:32N 41°00' W 072°18'0 0.0
2015-Jun-30 11:29N 41°00' W 072°18'0 0.0
2015-Jun-30 10:32N 41°00' W 072°18'0 0.0
2015-Jun-30 09:29N 41°00' W 072°18'0 0.0
2015-Jun-30 08:32N 41°00' W 072°18'0 0.0
2015-Jun-30 07:29N 41°00' W 072°18'0 0.0
2015-Jun-30 06:32N 41°00' W 072°18'0 0.0
2015-Jun-30 05:32N 41°00' W 072°18'0 0.0
2015-Jun-30 04:32N 41°00' W 072°18'0 0.0
2015-Jun-30 03:32N 41°00' W 072°18'0 0.0
2015-Jun-30 02:32N 41°00' W 072°18'0 0.0
2015-Jun-30 01:32N 41°00' W 072°18'0 0.0
2015-Jun-30 00:32N 41°00' W 072°18'0 0.0
2015-Jun-29 23:32N 41°00' W 072°18'0 0.0
2015-Jun-29 22:32N 41°00' W 072°18'0 0.0
2015-Jun-29 21:32N 41°00' W 072°18'0 0.0
2015-Jun-29 20:32N 41°00' W 072°18'0 0.0
2015-Jun-29 19:32N 41°00' W 072°18'0 0.0
2015-Jun-29 18:32N 41°00' W 072°18'2 2.3
2015-Jun-29 17:33N 41°02' W 072°16'9 8.5
2015-Jun-29 16:33N 41°10' W 072°21'1615.7
2015-Jun-29 15:33N 41°06' W 072°41'1514.7
2015-Jun-29 14:33N 41°03' W 073°00'1514.6
2015-Jun-29 13:33N 41°00' W 073°19'12 0.7
2015-Jun-28 19:19N 40°53' W 073°32'0 0.0
2015-Jun-28 18:25N 40°53' W 073°32'0 0.0
2015-Jun-28 17:25N 40°53' W 073°32'0 0.0
2015-Jun-28 13:19N 40°53' W 073°32'0 0.0
2015-Jun-28 01:31N 40°53' W 073°32'0 0.0
2015-Jun-28 00:31N 40°53' W 073°32'0 0.0
2015-Jun-27 23:28N 40°53' W 073°32'0 0.0
2015-Jun-27 22:31N 40°53' W 073°32'0 0.0
2015-Jun-27 21:31N 40°53' W 073°32'0 0.0
2015-Jun-27 17:31N 40°53' W 073°32'0 0.0
2015-Jun-27 16:31N 40°53' W 073°32'0 0.0
2015-Jun-27 15:31N 40°53' W 073°32'0 0.0
2015-Jun-27 14:31N 40°53' W 073°32'0 0.0
2015-Jun-27 13:31N 40°53' W 073°32'0 0.0
2015-Jun-27 12:31N 40°53' W 073°32'0 0.0
2015-Jun-27 11:31N 40°53' W 073°32'0 0.0
2015-Jun-27 10:31N 40°53' W 073°32'0 0.0
2015-Jun-27 09:31N 40°53' W 073°32'0 0.0
2015-Jun-27 08:31N 40°53' W 073°32'0 0.0
2015-Jun-27 07:31N 40°53' W 073°32'0 0.0
2015-Jun-27 06:31N 40°53' W 073°32'0 0.0
2015-Jun-27 05:25N 40°53' W 073°32'0 0.0
2015-Jun-27 04:28N 40°53' W 073°32'0 0.0
2015-Jun-27 03:19N 40°53' W 073°32'0 0.0
2015-Jun-27 02:16N 40°53' W 073°32'1 0.0
2015-Jun-26 10:30N 40°53' W 073°31'0 0.0
2015-Jun-26 09:33N 40°53' W 073°31'0 0.0
2015-Jun-26 07:30N 40°53' W 073°31'0 0.0
2015-Jun-26 04:24N 40°53' W 073°31'0 0.0
2015-Jun-26 02:27N 40°53' W 073°31'0 0.0
2015-Jun-25 23:21N 40°53' W 073°31'0 0.0
2015-Jun-25 22:24N 40°53' W 073°31'0 0.0
2015-Jun-25 14:24N 40°53' W 073°31'0 0.0
2015-Jun-25 13:30N 40°53' W 073°31'0 0.0
2015-Jun-25 12:21N 40°53' W 073°31'0 0.0
2015-Jun-25 11:33N 40°53' W 073°31'0 0.0
2015-Jun-25 10:21N 40°53' W 073°31'0 0.0
2015-Jun-25 08:21N 40°53' W 073°31'0 0.0
2015-Jun-25 03:33N 40°53' W 073°31'0 0.0
2015-Jun-24 18:29N 40°53' W 073°31'5 5.3
2015-Jun-24 17:32N 40°58' W 073°29'1616.1
2015-Jun-24 16:33N 41°02' W 073°09'1414.1
2015-Jun-24 15:33N 41°05' W 072°51'1413.6
2015-Jun-24 14:34N 41°08' W 072°33'1212.5
2015-Jun-24 13:34N 41°10' W 072°17'9 9.0
2015-Jun-24 12:33N 41°01' W 072°16'1 1.4
2015-Jun-24 11:32N 41°00' W 072°18'0 0.0
2015-Jun-24 10:32N 41°00' W 072°18'0 0.0
2015-Jun-24 09:32N 41°00' W 072°18'0 0.0
2015-Jun-24 08:32N 41°00' W 072°18'0 0.0
2015-Jun-24 07:32N 41°00' W 072°18'0 0.0
2015-Jun-24 06:32N 41°00' W 072°18'0 0.0
2015-Jun-24 05:32N 41°00' W 072°18'0 0.0
2015-Jun-24 04:32N 41°00' W 072°18'0 0.0
2015-Jun-24 03:32N 41°00' W 072°18'0 0.0
2015-Jun-24 02:32N 41°00' W 072°18'0 0.0
2015-Jun-24 01:29N 41°00' W 072°18'0 0.0
2015-Jun-24 00:32N 41°00' W 072°18'0 0.0
2015-Jun-23 23:32N 41°00' W 072°18'0 0.0
2015-Jun-23 22:32N 41°00' W 072°18'0 0.0
2015-Jun-23 21:32N 41°00' W 072°18'0 0.0
2015-Jun-23 20:29N 41°00' W 072°18'0 0.0
2015-Jun-23 19:32N 41°00' W 072°18'0 0.0
2015-Jun-23 19:05N 41°00' W 072°18'0 0.0
2015-Jun-22 19:32N 41°00' W 072°18'0 0.0
2015-Jun-22 18:32N 41°00' W 072°18'0 0.0
2015-Jun-22 17:32N 41°00' W 072°18'0 0.0
2015-Jun-22 16:32N 41°00' W 072°18'0 0.0
2015-Jun-22 15:32N 41°00' W 072°18'0 0.0
2015-Jun-22 14:32N 41°00' W 072°18'0 0.0
2015-Jun-22 13:32N 41°00' W 072°18'0 0.0
2015-Jun-21 14:32N 41°00' W 072°18'0 0.0
2015-Jun-21 13:32N 41°00' W 072°18'0 0.0
2015-Jun-21 12:32N 41°00' W 072°18'0 0.0
2015-Jun-21 11:32N 41°00' W 072°18'0 0.0
2015-Jun-21 10:32N 41°00' W 072°18'0 0.0
2015-Jun-21 09:32N 41°00' W 072°18'0 0.0
2015-Jun-21 08:32N 41°00' W 072°18'0 0.0
2015-Jun-21 07:32N 41°00' W 072°18'0 0.0
2015-Jun-21 06:32N 41°00' W 072°18'0 0.0
2015-Jun-21 05:32N 41°00' W 072°18'0 0.0
2015-Jun-21 04:32N 41°00' W 072°18'0 0.0
2015-Jun-21 03:32N 41°00' W 072°18'0 0.0
2015-Jun-21 02:32N 41°00' W 072°18'  
Track history (hours):
 
Tides and Currents Weather Stations Pressure Air Temp Water Temp Dewpoint Dewpoint Depression Visibility Wind Speed Wind Dir Waves Ship Positions

Azucar

Last reported at 2015-Jul-01 01:32 UTC. Time now 2015-Jul-01 01:51 UTC.
Position N 41°00' W 072°18'.

Length 40 m; draft 2.1 m.

Type: Pleasure craft. MMSI: 319416000.

Date/timePositionNaut miles runAvg speedWind from/ knotsBaromVisibWave heightAir tempDewpointWater temp
2015-Jul-01 01:32N 41°00' W 072°18'0 0.0
2015-Jul-01 00:32N 41°00' W 072°18'0 0.0
2015-Jun-30 23:32N 41°00' W 072°18'0 0.0
2015-Jun-30 22:32N 41°00' W 072°18'0 0.0
2015-Jun-30 21:32N 41°00' W 072°18'0 0.0
2015-Jun-30 20:32N 41°00' W 072°18'0 0.0
2015-Jun-30 19:32N 41°00' W 072°18'0 0.0
2015-Jun-30 18:32N 41°00' W 072°18'0 0.0
2015-Jun-30 17:32N 41°00' W 072°18'0 0.0
2015-Jun-30 16:32N 41°00' W 072°18'0 0.0
2015-Jun-30 15:20N 41°00' W 072°18'0 0.0
2015-Jun-30 14:32N 41°00' W 072°18'0 0.0
2015-Jun-30 13:32N 41°00' W 072°18'0 0.0
2015-Jun-30 12:32N 41°00' W 072°18'0 0.0
2015-Jun-30 11:29N 41°00' W 072°18'0 0.0
2015-Jun-30 10:32N 41°00' W 072°18'0 0.0
2015-Jun-30 09:29N 41°00' W 072°18'0 0.0
2015-Jun-30 08:32N 41°00' W 072°18'0 0.0
2015-Jun-30 07:29N 41°00' W 072°18'0 0.0
2015-Jun-30 06:32N 41°00' W 072°18'0 0.0
2015-Jun-30 05:32N 41°00' W 072°18'0 0.0
2015-Jun-30 04:32N 41°00' W 072°18'0 0.0
2015-Jun-30 03:32N 41°00' W 072°18'0 0.0
2015-Jun-30 02:32N 41°00' W 072°18'0 0.0
2015-Jun-30 01:32N 41°00' W 072°18'0 0.0
2015-Jun-30 00:32N 41°00' W 072°18'0 0.0
2015-Jun-29 23:32N 41°00' W 072°18'0 0.0
2015-Jun-29 22:32N 41°00' W 072°18'0 0.0
2015-Jun-29 21:32N 41°00' W 072°18'0 0.0
2015-Jun-29 20:32N 41°00' W 072°18'0 0.0
2015-Jun-29 19:32N 41°00' W 072°18'0 0.0
2015-Jun-29 18:32N 41°00' W 072°18'2 2.3
2015-Jun-29 17:33N 41°02' W 072°16'9 8.5
2015-Jun-29 16:33N 41°10' W 072°21'1615.7
2015-Jun-29 15:33N 41°06' W 072°41'1514.7
2015-Jun-29 14:33N 41°03' W 073°00'1514.6
2015-Jun-29 13:33N 41°00' W 073°19'12 0.7
2015-Jun-28 19:19N 40°53' W 073°32'0 0.0
2015-Jun-28 18:25N 40°53' W 073°32'0 0.0
2015-Jun-28 17:25N 40°53' W 073°32'0 0.0
2015-Jun-28 13:19N 40°53' W 073°32'0 0.0
2015-Jun-28 01:31N 40°53' W 073°32'0 0.0
2015-Jun-28 00:31N 40°53' W 073°32'0 0.0
2015-Jun-27 23:28N 40°53' W 073°32'0 0.0
2015-Jun-27 22:31N 40°53' W 073°32'0 0.0
2015-Jun-27 21:31N 40°53' W 073°32'0 0.0
2015-Jun-27 17:31N 40°53' W 073°32'0 0.0
2015-Jun-27 16:31N 40°53' W 073°32'0 0.0
2015-Jun-27 15:31N 40°53' W 073°32'0 0.0
2015-Jun-27 14:31N 40°53' W 073°32'0 0.0
2015-Jun-27 13:31N 40°53' W 073°32'0 0.0
2015-Jun-27 12:31N 40°53' W 073°32'0 0.0
2015-Jun-27 11:31N 40°53' W 073°32'0 0.0
2015-Jun-27 10:31N 40°53' W 073°32'0 0.0
2015-Jun-27 09:31N 40°53' W 073°32'0 0.0
2015-Jun-27 08:31N 40°53' W 073°32'0 0.0
2015-Jun-27 07:31N 40°53' W 073°32'0 0.0
2015-Jun-27 06:31N 40°53' W 073°32'0 0.0
2015-Jun-27 05:25N 40°53' W 073°32'0 0.0
2015-Jun-27 04:28N 40°53' W 073°32'0 0.0
2015-Jun-27 03:19N 40°53' W 073°32'0 0.0
2015-Jun-27 02:16N 40°53' W 073°32'1 0.0
2015-Jun-26 10:30N 40°53' W 073°31'0 0.0
2015-Jun-26 09:33N 40°53' W 073°31'0 0.0
2015-Jun-26 07:30N 40°53' W 073°31'0 0.0
2015-Jun-26 04:24N 40°53' W 073°31'0 0.0
2015-Jun-26 02:27N 40°53' W 073°31'0 0.0
2015-Jun-25 23:21N 40°53' W 073°31'0 0.0
2015-Jun-25 22:24N 40°53' W 073°31'0 0.0
2015-Jun-25 14:24N 40°53' W 073°31'0 0.0
2015-Jun-25 13:30N 40°53' W 073°31'0 0.0
2015-Jun-25 12:21N 40°53' W 073°31'0 0.0
2015-Jun-25 11:33N 40°53' W 073°31'0 0.0
2015-Jun-25 10:21N 40°53' W 073°31'0 0.0
2015-Jun-25 08:21N 40°53' W 073°31'0 0.0
2015-Jun-25 03:33N 40°53' W 073°31'0 0.0
2015-Jun-24 18:29N 40°53' W 073°31'5 5.3
2015-Jun-24 17:32N 40°58' W 073°29'1616.1
2015-Jun-24 16:33N 41°02' W 073°09'1414.1
2015-Jun-24 15:33N 41°05' W 072°51'1413.6
2015-Jun-24 14:34N 41°08' W 072°33'1212.5
2015-Jun-24 13:34N 41°10' W 072°17'9 9.0
2015-Jun-24 12:33N 41°01' W 072°16'1 1.4
2015-Jun-24 11:32N 41°00' W 072°18'0 0.0
2015-Jun-24 10:32N 41°00' W 072°18'0 0.0
2015-Jun-24 09:32N 41°00' W 072°18'0 0.0
2015-Jun-24 08:32N 41°00' W 072°18'0 0.0
2015-Jun-24 07:32N 41°00' W 072°18'0 0.0
2015-Jun-24 06:32N 41°00' W 072°18'0 0.0
2015-Jun-24 05:32N 41°00' W 072°18'0 0.0
2015-Jun-24 04:32N 41°00' W 072°18'0 0.0
2015-Jun-24 03:32N 41°00' W 072°18'0 0.0
2015-Jun-24 02:32N 41°00' W 072°18'0 0.0
2015-Jun-24 01:29N 41°00' W 072°18'0 0.0
2015-Jun-24 00:32N 41°00' W 072°18'0 0.0
2015-Jun-23 23:32N 41°00' W 072°18'0 0.0
2015-Jun-23 22:32N 41°00' W 072°18'0 0.0
2015-Jun-23 21:32N 41°00' W 072°18'0 0.0
2015-Jun-23 20:29N 41°00' W 072°18'0 0.0
2015-Jun-23 19:32N 41°00' W 072°18'0 0.0
2015-Jun-23 19:05N 41°00' W 072°18'0 0.0
2015-Jun-22 19:32N 41°00' W 072°18'0 0.0
2015-Jun-22 18:32N 41°00' W 072°18'0 0.0
2015-Jun-22 17:32N 41°00' W 072°18'0 0.0
2015-Jun-22 16:32N 41°00' W 072°18'0 0.0
2015-Jun-22 15:32N 41°00' W 072°18'0 0.0
2015-Jun-22 14:32N 41°00' W 072°18'0 0.0
2015-Jun-22 13:32N 41°00' W 072°18'0 0.0
2015-Jun-21 14:32N 41°00' W 072°18'0 0.0
2015-Jun-21 13:32N 41°00' W 072°18'0 0.0
2015-Jun-21 12:32N 41°00' W 072°18'0 0.0
2015-Jun-21 11:32N 41°00' W 072°18'0 0.0
2015-Jun-21 10:32N 41°00' W 072°18'0 0.0
2015-Jun-21 09:32N 41°00' W 072°18'0 0.0
2015-Jun-21 08:32N 41°00' W 072°18'0 0.0
2015-Jun-21 07:32N 41°00' W 072°18'0 0.0
2015-Jun-21 06:32N 41°00' W 072°18'0 0.0
2015-Jun-21 05:32N 41°00' W 072°18'0 0.0
2015-Jun-21 04:32N 41°00' W 072°18'0 0.0
2015-Jun-21 03:32N 41°00' W 072°18'0 0.0
2015-Jun-21 02:32N 41°00' W 072°18'  

Dump ship's entire track history